createdAt,value
2023-05-25T06:49:52.750Z,3.90
2023-05-25T06:54:54.597Z,4.20
2023-05-25T06:59:55.577Z,4.00
2023-05-25T07:09:57.614Z,3.80
2023-05-25T07:14:58.838Z,3.70
2023-05-25T07:20:00.195Z,3.70
2023-05-25T07:25:01.364Z,3.70
2023-05-25T07:30:03.269Z,4.10
2023-05-25T07:35:05.339Z,4.00
2023-05-25T07:40:07.078Z,4.70
2023-05-25T07:45:08.882Z,3.30
2023-05-25T07:50:10.495Z,3.80
2023-05-25T07:55:11.641Z,3.60
2023-05-25T08:00:13.283Z,3.60
2023-05-25T08:05:14.661Z,4.60
2023-05-25T08:10:15.922Z,3.70
2023-05-25T08:15:17.139Z,3.90
2023-05-25T08:20:20.657Z,4.10
2023-05-25T08:25:22.062Z,3.90
2023-05-25T08:30:23.323Z,4.10
2023-05-25T08:35:25.621Z,3.60
2023-05-25T08:40:26.873Z,3.50
2023-05-25T08:55:37.739Z,3.30
2023-05-25T09:00:41.919Z,3.70
2023-05-25T09:05:43.416Z,3.70
2023-05-25T09:10:44.654Z,4.20
2023-05-25T09:15:45.880Z,3.60
2023-05-25T09:20:47.549Z,3.60
2023-05-25T09:25:49.087Z,3.60
2023-05-25T09:30:50.164Z,3.70
2023-05-25T09:35:51.661Z,4.00
2023-05-25T09:40:52.699Z,3.60
2023-05-25T09:45:53.892Z,3.30
2023-05-25T09:50:55.847Z,3.90
2023-05-25T09:55:56.931Z,3.80
2023-05-25T10:00:57.971Z,3.20
2023-05-25T10:05:59.421Z,3.50
2023-05-25T10:11:00.584Z,3.90
2023-05-25T10:16:01.726Z,3.50
2023-05-25T10:21:03.954Z,3.80
2023-05-25T10:26:05.531Z,3.00
2023-05-25T10:31:06.697Z,4.20
2023-05-25T10:36:11.109Z,3.30
2023-05-25T10:41:13.078Z,3.50
2023-05-25T10:46:14.257Z,3.00
2023-05-25T10:51:15.450Z,3.80
2023-05-25T10:56:16.507Z,3.20
2023-05-25T11:01:17.805Z,4.10
2023-05-25T11:06:20.331Z,4.10
2023-05-25T11:11:42.314Z,4.00
2023-05-25T11:16:43.766Z,3.40
2023-05-25T11:21:45.374Z,3.80
2023-05-25T11:26:57.161Z,4.40
2023-05-25T11:31:58.722Z,4.20
2023-05-25T11:36:59.858Z,4.10
2023-05-25T11:42:04.944Z,4.10
2023-05-25T11:47:07.256Z,4.90
2023-05-25T11:52:11.332Z,4.90
2023-05-25T11:57:22.530Z,5.40
2023-05-25T12:02:24.132Z,4.10
2023-05-25T12:07:26.142Z,3.70
2023-05-25T12:12:27.539Z,3.50
2023-05-25T12:17:29.139Z,2.70
2023-05-25T12:22:32.469Z,3.00
2023-05-25T12:27:33.713Z,2.50
2023-05-25T12:33:01.660Z,2.00
2023-05-25T12:38:20.074Z,2.60
2023-05-25T12:43:22.634Z,2.60
2023-05-25T12:48:26.802Z,3.00
2023-05-25T12:53:28.314Z,4.20
2023-05-25T12:58:29.433Z,3.20
2023-05-25T13:03:30.620Z,3.00
2023-05-25T13:08:31.780Z,3.20
2023-05-25T13:13:32.795Z,2.80
2023-05-25T13:18:33.947Z,5.70
2023-05-25T13:23:34.984Z,3.20
2023-05-25T13:28:36.014Z,2.90
2023-05-25T13:33:37.175Z,2.70
2023-05-25T13:38:40.343Z,2.90
2023-05-25T13:43:41.333Z,2.70
2023-05-25T13:48:42.587Z,2.40
2023-05-25T13:53:43.920Z,2.40
2023-05-25T13:58:46.732Z,2.60
2023-05-25T14:03:47.990Z,2.90
2023-05-25T14:08:49.366Z,3.00
2023-05-25T14:13:51.014Z,3.00
2023-05-25T14:18:52.801Z,2.50
2023-05-25T14:23:53.795Z,2.70
2023-05-25T14:28:54.924Z,2.90
2023-05-25T14:33:56.122Z,3.20
2023-05-25T14:38:57.469Z,3.10
2023-05-25T14:43:59.119Z,2.90
2023-05-25T14:49:00.282Z,3.20
2023-05-25T14:54:01.431Z,3.50
2023-05-25T14:59:02.613Z,3.20
2023-05-25T15:04:04.141Z,3.30
2023-05-25T15:09:06.357Z,2.80
2023-05-25T15:14:07.384Z,2.90
2023-05-25T15:19:11.443Z,3.30
2023-05-25T15:24:13.535Z,3.90
2023-05-25T15:29:14.800Z,3.50
2023-05-25T15:34:15.825Z,3.50
2023-05-25T15:39:17.136Z,4.20
2023-05-25T15:44:18.290Z,3.30
2023-05-25T15:49:19.549Z,3.70
2023-05-25T15:54:20.809Z,3.40
2023-05-25T15:59:21.876Z,3.30
2023-05-25T16:04:23.072Z,2.80
2023-05-25T16:09:26.342Z,2.60
2023-05-25T16:14:33.951Z,3.10
2023-05-25T16:19:35.218Z,3.40
2023-05-25T16:24:36.226Z,3.00
2023-05-25T16:29:37.240Z,3.10
2023-05-25T16:34:38.495Z,3.30
2023-05-25T16:39:39.758Z,3.60
2023-05-25T16:44:40.916Z,3.00
2023-05-25T16:49:42.008Z,2.90
2023-05-25T16:54:44.782Z,3.40
2023-05-25T16:59:45.952Z,4.00
2023-05-25T17:04:46.898Z,6.40
2023-05-25T17:09:48.057Z,6.20
2023-05-25T17:14:49.115Z,4.20
2023-05-25T17:19:50.099Z,3.50
2023-05-25T17:24:53.098Z,4.30
2023-05-25T17:29:54.241Z,3.30
2023-05-25T17:34:55.402Z,4.10
2023-05-25T17:39:56.402Z,5.70
2023-05-25T17:44:57.630Z,4.60
2023-05-25T17:49:58.802Z,5.20
2023-05-25T17:54:59.994Z,4.20
2023-05-25T18:00:01.116Z,4.70
2023-05-25T18:05:02.202Z,4.60
2023-05-25T18:10:04.089Z,5.00
2023-05-25T18:15:06.008Z,4.60
2023-05-25T18:20:08.212Z,3.90
2023-05-25T18:25:09.880Z,4.50
2023-05-25T18:30:12.096Z,4.00
2023-05-25T18:35:13.447Z,4.30
2023-05-25T18:40:16.847Z,4.20
2023-05-25T18:45:18.035Z,4.50
2023-05-25T18:50:19.298Z,3.60
2023-05-25T18:55:21.096Z,4.20
2023-05-25T19:00:22.644Z,3.80
2023-05-25T19:05:24.250Z,4.90
2023-05-25T19:10:25.419Z,4.90
2023-05-25T19:15:27.596Z,5.30
2023-05-25T19:20:29.320Z,4.40
2023-05-25T19:25:30.883Z,4.60
2023-05-25T19:30:31.975Z,5.50
2023-05-25T19:35:33.313Z,4.30
2023-05-25T19:40:34.398Z,4.60
2023-05-25T19:45:35.406Z,4.00
2023-05-25T19:50:37.307Z,4.10
2023-05-25T19:55:38.363Z,3.80
2023-05-25T20:00:39.515Z,3.50
2023-05-25T20:05:42.404Z,3.50
2023-05-25T20:10:43.798Z,3.60
2023-05-25T20:15:45.164Z,3.80
2023-05-25T20:20:48.161Z,3.90
2023-05-25T20:25:49.566Z,4.20
2023-05-25T20:30:51.156Z,3.60
2023-05-25T20:35:52.200Z,3.50
2023-05-25T20:40:53.323Z,4.00
2023-05-25T20:45:54.668Z,3.90
2023-05-25T20:50:55.754Z,3.90
2023-05-25T20:55:57.323Z,3.80
2023-05-25T21:00:59.014Z,4.00
2023-05-25T21:06:00.044Z,4.10
2023-05-25T21:11:01.037Z,3.60
2023-05-25T21:21:03.465Z,3.50
2023-05-25T21:26:04.728Z,3.80
2023-05-25T21:31:05.892Z,3.40
2023-05-25T21:36:07.640Z,2.60
2023-05-25T21:41:08.804Z,2.90
2023-05-25T21:51:12.304Z,3.00
2023-05-25T21:56:13.431Z,2.80
2023-05-25T22:01:14.637Z,3.10
2023-05-25T22:06:15.940Z,3.10
2023-05-25T22:16:17.927Z,2.90
2023-05-25T22:21:19.040Z,3.10
2023-05-25T22:31:21.062Z,3.50
2023-05-25T22:36:22.288Z,4.10
2023-05-25T22:46:29.687Z,3.20
2023-05-25T22:51:34.485Z,3.80
2023-05-25T22:56:35.747Z,4.10
2023-05-25T23:01:37.362Z,4.00
2023-05-25T23:06:38.582Z,4.10
2023-05-25T23:16:42.808Z,4.20
2023-05-25T23:21:44.008Z,3.50
2023-05-25T23:26:45.270Z,3.70
2023-05-25T23:36:47.798Z,2.60
2023-05-25T23:41:48.759Z,3.40
2023-05-25T23:46:51.144Z,3.60
2023-05-25T23:51:52.055Z,3.60
2023-05-25T23:56:53.169Z,3.90
